METAR LDRI 280730Z VRB02KT 9999 FEW050 28/19 Q1015=
METAR LDRI 280700Z VRB02KT 9999 FEW050 27/19 Q1015=
METAR LDRI 280630Z 00000KT 9999 FEW050 25/20 Q1015=
METAR LDRI 280600Z 02004KT 360V070 9999 FEW050 24/19 Q1015=
METAR LDRI 280530Z VRB02KT 9999 FEW050 24/19 Q1015=
METAR LDRI 280500Z 00000KT 9999 FEW050 24/19 Q1014=
METAR LDRI 280430Z 00000KT 9999 FEW050 23/19 Q1014=
METAR LDRI 280400Z 00000KT CAVOK 23/18 Q1014=
METAR LDRI 280330Z VRB08KT CAVOK 23/19 Q1014=
METAR LDRI 280300Z 08003KT 050V120 CAVOK 23/19 Q1015=
METAR LDRI 280230Z VRB08KT CAVOK 22/19 Q1015=
METAR LDRI 280200Z 13002KT CAVOK 22/19 Q1015=
METAR LDRI 280130Z 36005KT 340V080 CAVOK 24/19 Q1015=
METAR LDRI 280100Z 07005KT CAVOK 26/14 Q1015=
METAR LDRI 280030Z VRB03KT CAVOK 22/19 Q1015=
METAR LDRI 280000Z VRB02KT CAVOK 26/19 Q1015=
METAR COR LDRI 272330Z VRB02KT CAVOK 24/20 Q1015=
METAR LDRI 272300Z 13002KT CAVOK 24/20 Q1015=
METAR LDRI 272230Z 16002KT CAVOK 23/19 Q1016=
METAR LDRI 272200Z VRB01KT CAVOK 24/20 Q1016=
METAR COR LDRI 272130Z 36002KT 300V040 CAVOK 24/20 Q1016=
METAR LDRI 272100Z 35003KT 320V060 CAVOK 24/20 Q1016=
METAR LDRI 272030Z 34004KT 300V030 CAVOK 25/17 Q1016=
METAR LDRI 272000Z 12003KT CAVOK 23/18 Q1016=
METAR LDRI 271930Z 12004KT CAVOK 25/17 Q1015=
METAR LDRI 271900Z VRB02KT CAVOK 26/18 Q1015=
METAR LDRI 271830Z 17003KT 090V240 CAVOK 26/19 Q1015=
METAR LDRI 271800Z 00000KT CAVOK 28/18 Q1015=
METAR LDRI 271730Z 29003KT 250V340 CAVOK 29/19 Q1015=
METAR LDRI 271700Z 26004KT 210V300 CAVOK 29/19 Q1015=
METAR LDRI 271630Z 02004KT 330V060 CAVOK 31/17 Q1015=
METAR LDRI 271600Z VRB03KT CAVOK 31/18 Q1015=
METAR LDRI 271530Z 33004KT 280V360 CAVOK 30/19 Q1015=
METAR LDRI 271500Z 27004KT 220V340 CAVOK 30/19 Q1016=
METAR LDRI 271430Z 27005KT 210V310 9999 FEW050 29/19 Q1016=
METAR LDRI 271400Z 31006KT 270V350 9999 FEW050 28/20 Q1016=
METAR LDRI 271330Z 28006KT 250V330 9999 FEW045 28/19 Q1016=
METAR LDRI 271300Z 27006KT 240V300 9999 FEW045 29/20 Q1017=
METAR LDRI 271230Z VRB02KT 9999 SCT045 29/20 Q1017=
METAR LDRI 271200Z 30005KT 270V350 9999 SCT045 28/20 Q1017=
METAR LDRI 271130Z 31005KT 270V040 9999 FEW045 29/21 Q1017=
METAR LDRI 271100Z 33003KT 280V020 9999 SCT045 27/22 Q1017=
METAR LDRI 271030Z VRB02KT 9999 SCT045 26/21 Q1018=
METAR LDRI 271000Z 30004KT 270V340 9999 SCT045 26/21 Q1018=
METAR LDRI 270930Z VRB02KT 9999 SCT045 28/20 Q1018=
METAR LDRI 270900Z 32004KT 260V020 9999 SCT045 26/22 Q1018=
METAR LDRI 270830Z 25005KT 220V280 9999 SCT045 26/21 Q1018=
METAR LDRI 270800Z VRB04KT 9999 SCT045 27/19 Q1017=
METAR LDRI 270730Z 14007KT 080V170 9999 FEW045 28/18 Q1017=
METAR LDRI 270700Z 10005KT 060V150 9999 FEW045 27/20 Q1016=
METAR LDRI 270630Z 09006KT 9999 SCT040 25/21 Q1017=
METAR LDRI 270600Z 12005KT 100V170 9999 BKN040 24/21 Q1017=
METAR LDRI 270530Z 18005KT 9999 -RA SCT040 24/20 Q1017=
METAR LDRI 270500Z 14004KT 9999 SCT042 25/19 Q1016=
METAR LDRI 270430Z 00000KT 9999 SCT042 23/20 Q1016=
METAR LDRI 270400Z VRB01KT 9999 SCT042 23/20 Q1016=
METAR LDRI 270330Z VRB01KT 9999 -RA SCT042 24/20 Q1016=
METAR LDRI 270300Z 20005KT 9999 FEW042 24/20 Q1016=
METAR COR LDRI 270230Z 20005KT 9999 FEW042 24/20 Q1016=
METAR LDRI 270203Z 20005KT 9999 FEW042 24/20 Q1016=
METAR LDRI 270200Z 17004KT 9999 FEW042 24/19 Q1015=
METAR LDRI 270130Z 13007KT 9999 FEW042 24/20 Q1016=
METAR LDRI 270100Z 11007KT 9999 FEW042 24/20 Q1016=
METAR LDRI 270030Z 10006KT 9999 FEW042 25/20 Q1016=
METAR LDRI 270000Z 12005KT 090V190 CAVOK 25/20 Q1016=
METAR LDRI 262330Z 12006KT CAVOK 25/19 Q1016=
METAR LDRI 262300Z 12007KT CAVOK 24/19 Q1015=
METAR LDRI 262230Z 12007KT 9999 FEW042 24/19 Q1015=
METAR LDRI 262200Z 12006KT 9999 FEW042 25/19 Q1015=
METAR LDRI 262130Z 11008KT 9999 FEW042 25/19 Q1015=
METAR LDRI 262100Z 11005KT 9999 FEW042 25/19 Q1015=
METAR LDRI 262030Z 06005KT 9999 FEW045 26/19 Q1015=
METAR LDRI 262000Z VRB01KT 9999 FEW048 25/19 Q1015=